Terminal Aerodrome Forecast
Issued by NWS

Home | Current Version | Previous Version | Graphics & Text | Print | Product List | Glossary On
Versions: 1 2 3 4 5 6 7 8 9 10 11 12 13 14
000
FTUS43 KTOP 220500
TAFMHK
TAF
KMHK 220525Z 2206/2306 01005KT P6SM FEW050 BKN150
     FM221000 02005KT P6SM BKN025 BKN150
     FM222000 VRB03KT P6SM SCT025=

USA.gov is the U.S. government's official web portal to all federal, state and local government web resources and services.